sensor_id;sensor_type;location;lat;lon;timestamp;P1;durP1;ratioP1;P2;durP2;ratioP2
23712;SDS011;12035;49.978;8.298;2022-11-20T00:03:27;17.08;;;10.93;;
23712;SDS011;12035;49.978;8.298;2022-11-20T00:08:24;19.13;;;12.63;;
23712;SDS011;12035;49.978;8.298;2022-11-20T00:13:23;19.95;;;12.88;;
23712;SDS011;12035;49.978;8.298;2022-11-20T00:18:20;19.17;;;11.77;;
23712;SDS011;12035;49.978;8.298;2022-11-20T00:23:17;18.80;;;11.35;;
23712;SDS011;12035;49.978;8.298;2022-11-20T00:28:14;18.83;;;11.80;;
23712;SDS011;12035;49.978;8.298;2022-11-20T00:33:13;18.17;;;11.90;;
23712;SDS011;12035;49.978;8.298;2022-11-20T00:38:10;21.52;;;12.35;;
23712;SDS011;12035;49.978;8.298;2022-11-20T00:43:07;21.02;;;12.43;;
23712;SDS011;12035;49.978;8.298;2022-11-20T00:48:04;19.90;;;12.35;;
23712;SDS011;12035;49.978;8.298;2022-11-20T00:53:03;19.23;;;11.82;;
23712;SDS011;12035;49.978;8.298;2022-11-20T00:58:00;19.73;;;11.80;;
23712;SDS011;12035;49.978;8.298;2022-11-20T01:02:57;19.10;;;11.13;;
23712;SDS011;12035;49.978;8.298;2022-11-20T01:07:54;22.10;;;13.38;;
23712;SDS011;12035;49.978;8.298;2022-11-20T01:12:52;23.63;;;13.43;;
23712;SDS011;12035;49.978;8.298;2022-11-20T01:18:03;22.95;;;13.50;;
23712;SDS011;12035;49.978;8.298;2022-11-20T01:23:00;22.05;;;12.35;;
23712;SDS011;12035;49.978;8.298;2022-11-20T01:28:00;18.98;;;10.52;;
23712;SDS011;12035;49.978;8.298;2022-11-20T01:32:57;21.52;;;12.48;;
23712;SDS011;12035;49.978;8.298;2022-11-20T01:37:54;21.80;;;12.27;;
23712;SDS011;12035;49.978;8.298;2022-11-20T01:42:53;19.60;;;11.88;;
23712;SDS011;12035;49.978;8.298;2022-11-20T01:48:18;24.63;;;14.48;;
23712;SDS011;12035;49.978;8.298;2022-11-20T01:53:18;23.13;;;12.82;;
23712;SDS011;12035;49.978;8.298;2022-11-20T01:58:24;26.55;;;13.90;;
23712;SDS011;12035;49.978;8.298;2022-11-20T02:03:26;27.15;;;15.73;;
23712;SDS011;12035;49.978;8.298;2022-11-20T02:08:24;29.23;;;16.05;;
23712;SDS011;12035;49.978;8.298;2022-11-20T02:13:22;26.10;;;14.88;;
23712;SDS011;12035;49.978;8.298;2022-11-20T02:18:37;24.33;;;13.98;;
23712;SDS011;12035;49.978;8.298;2022-11-20T02:23:37;21.45;;;11.88;;
23712;SDS011;12035;49.978;8.298;2022-11-20T02:28:39;20.40;;;11.25;;
23712;SDS011;12035;49.978;8.298;2022-11-20T02:33:36;19.60;;;11.13;;
23712;SDS011;12035;49.978;8.298;2022-11-20T02:38:34;27.00;;;14.98;;
23712;SDS011;12035;49.978;8.298;2022-11-20T02:43:31;24.23;;;14.90;;
23712;SDS011;12035;49.978;8.298;2022-11-20T02:48:30;24.35;;;14.98;;
23712;SDS011;12035;49.978;8.298;2022-11-20T02:53:27;22.52;;;13.45;;
23712;SDS011;12035;49.978;8.298;2022-11-20T02:58:24;23.08;;;13.43;;
23712;SDS011;12035;49.978;8.298;2022-11-20T03:03:21;26.00;;;14.25;;
23712;SDS011;12035;49.978;8.298;2022-11-20T03:08:19;26.58;;;15.88;;
23712;SDS011;12035;49.978;8.298;2022-11-20T03:13:17;26.50;;;14.63;;
23712;SDS011;12035;49.978;8.298;2022-11-20T03:18:14;26.35;;;14.18;;
23712;SDS011;12035;49.978;8.298;2022-11-20T03:23:11;21.90;;;12.40;;
23712;SDS011;12035;49.978;8.298;2022-11-20T03:28:09;22.20;;;13.07;;
23712;SDS011;12035;49.978;8.298;2022-11-20T03:33:06;24.60;;;14.77;;
23712;SDS011;12035;49.978;8.298;2022-11-20T03:38:04;21.85;;;13.05;;
23712;SDS011;12035;49.978;8.298;2022-11-20T03:43:01;22.15;;;13.18;;
23712;SDS011;12035;49.978;8.298;2022-11-20T03:47:59;21.38;;;12.77;;
23712;SDS011;12035;49.978;8.298;2022-11-20T03:52:56;25.50;;;12.93;;
23712;SDS011;12035;49.978;8.298;2022-11-20T03:57:53;21.10;;;12.73;;
23712;SDS011;12035;49.978;8.298;2022-11-20T04:02:50;22.95;;;13.40;;
23712;SDS011;12035;49.978;8.298;2022-11-20T04:07:49;25.63;;;14.38;;
23712;SDS011;12035;49.978;8.298;2022-11-20T04:12:46;19.85;;;12.68;;
23712;SDS011;12035;49.978;8.298;2022-11-20T04:17:43;24.23;;;14.35;;
23712;SDS011;12035;49.978;8.298;2022-11-20T04:22:54;24.65;;;13.88;;
23712;SDS011;12035;49.978;8.298;2022-11-20T04:27:51;24.08;;;12.95;;
23712;SDS011;12035;49.978;8.298;2022-11-20T04:32:48;22.90;;;12.25;;
23712;SDS011;12035;49.978;8.298;2022-11-20T04:37:45;22.83;;;11.82;;
23712;SDS011;12035;49.978;8.298;2022-11-20T04:42:43;22.38;;;11.90;;
23712;SDS011;12035;49.978;8.298;2022-11-20T04:47:40;21.77;;;12.25;;
23712;SDS011;12035;49.978;8.298;2022-11-20T04:52:37;24.58;;;13.35;;
23712;SDS011;12035;49.978;8.298;2022-11-20T04:57:34;24.33;;;13.32;;
23712;SDS011;12035;49.978;8.298;2022-11-20T05:02:33;22.60;;;12.88;;
23712;SDS011;12035;49.978;8.298;2022-11-20T05:07:30;23.88;;;13.25;;
23712;SDS011;12035;49.978;8.298;2022-11-20T05:12:27;22.10;;;12.15;;
23712;SDS011;12035;49.978;8.298;2022-11-20T05:17:24;23.88;;;12.73;;
23712;SDS011;12035;49.978;8.298;2022-11-20T05:22:22;22.20;;;12.20;;
23712;SDS011;12035;49.978;8.298;2022-11-20T05:27:20;21.88;;;11.35;;
23712;SDS011;12035;49.978;8.298;2022-11-20T05:32:17;24.17;;;13.77;;
23712;SDS011;12035;49.978;8.298;2022-11-20T05:37:14;22.45;;;12.25;;
23712;SDS011;12035;49.978;8.298;2022-11-20T05:42:12;23.17;;;13.02;;
23712;SDS011;12035;49.978;8.298;2022-11-20T05:47:23;20.25;;;11.55;;
23712;SDS011;12035;49.978;8.298;2022-11-20T05:52:20;22.63;;;11.27;;
23712;SDS011;12035;49.978;8.298;2022-11-20T05:57:19;24.80;;;14.50;;
23712;SDS011;12035;49.978;8.298;2022-11-20T06:02:16;22.17;;;12.45;;
23712;SDS011;12035;49.978;8.298;2022-11-20T06:07:13;18.17;;;10.48;;
23712;SDS011;12035;49.978;8.298;2022-11-20T06:12:10;16.08;;;9.30;;
23712;SDS011;12035;49.978;8.298;2022-11-20T06:17:09;18.60;;;10.13;;
23712;SDS011;12035;49.978;8.298;2022-11-20T06:22:06;24.67;;;13.45;;
23712;SDS011;12035;49.978;8.298;2022-11-20T06:27:03;20.48;;;11.68;;
23712;SDS011;12035;49.978;8.298;2022-11-20T06:32:00;18.92;;;10.50;;
23712;SDS011;12035;49.978;8.298;2022-11-20T06:36:58;21.73;;;11.98;;
23712;SDS011;12035;49.978;8.298;2022-11-20T06:41:56;22.38;;;12.40;;
23712;SDS011;12035;49.978;8.298;2022-11-20T06:46:53;20.45;;;11.52;;
23712;SDS011;12035;49.978;8.298;2022-11-20T06:51:50;24.83;;;13.77;;
23712;SDS011;12035;49.978;8.298;2022-11-20T06:56:48;22.35;;;12.50;;
23712;SDS011;12035;49.978;8.298;2022-11-20T07:01:45;20.58;;;11.68;;
23712;SDS011;12035;49.978;8.298;2022-11-20T07:06:42;24.70;;;12.65;;
23712;SDS011;12035;49.978;8.298;2022-11-20T07:11:39;21.88;;;12.02;;
23712;SDS011;12035;49.978;8.298;2022-11-20T07:16:38;21.33;;;11.50;;
23712;SDS011;12035;49.978;8.298;2022-11-20T07:21:35;21.85;;;11.30;;
23712;SDS011;12035;49.978;8.298;2022-11-20T07:26:32;25.45;;;13.43;;
23712;SDS011;12035;49.978;8.298;2022-11-20T07:31:30;18.85;;;10.18;;
23712;SDS011;12035;49.978;8.298;2022-11-20T07:36:28;20.67;;;11.05;;
23712;SDS011;12035;49.978;8.298;2022-11-20T07:41:26;19.40;;;11.13;;
23712;SDS011;12035;49.978;8.298;2022-11-20T07:46:24;19.88;;;11.48;;
23712;SDS011;12035;49.978;8.298;2022-11-20T07:51:21;24.23;;;12.82;;
23712;SDS011;12035;49.978;8.298;2022-11-20T07:56:19;20.77;;;11.82;;
23712;SDS011;12035;49.978;8.298;2022-11-20T08:01:17;19.67;;;11.52;;
23712;SDS011;12035;49.978;8.298;2022-11-20T08:06:14;23.92;;;11.80;;
23712;SDS011;12035;49.978;8.298;2022-11-20T08:11:11;20.58;;;11.32;;
23712;SDS011;12035;49.978;8.298;2022-11-20T08:16:27;19.42;;;11.45;;
23712;SDS011;12035;49.978;8.298;2022-11-20T08:21:25;21.30;;;11.98;;
23712;SDS011;12035;49.978;8.298;2022-11-20T08:26:22;22.45;;;12.10;;
23712;SDS011;12035;49.978;8.298;2022-11-20T08:31:19;24.27;;;12.82;;
23712;SDS011;12035;49.978;8.298;2022-11-20T08:36:18;18.73;;;11.02;;
23712;SDS011;12035;49.978;8.298;2022-11-20T08:41:16;19.92;;;11.23;;
23712;SDS011;12035;49.978;8.298;2022-11-20T08:46:23;21.58;;;12.02;;
23712;SDS011;12035;49.978;8.298;2022-11-20T08:51:23;19.40;;;11.27;;
23712;SDS011;12035;49.978;8.298;2022-11-20T08:56:21;18.45;;;10.63;;
23712;SDS011;12035;49.978;8.298;2022-11-20T09:01:18;23.55;;;12.88;;
23712;SDS011;12035;49.978;8.298;2022-11-20T09:06:17;19.00;;;11.45;;
23712;SDS011;12035;49.978;8.298;2022-11-20T09:11:16;25.58;;;13.52;;
23712;SDS011;12035;49.978;8.298;2022-11-20T09:16:13;23.20;;;12.85;;
23712;SDS011;12035;49.978;8.298;2022-11-20T09:21:10;27.75;;;13.70;;
23712;SDS011;12035;49.978;8.298;2022-11-20T09:26:09;24.20;;;13.63;;
23712;SDS011;12035;49.978;8.298;2022-11-20T09:31:13;21.85;;;12.35;;
23712;SDS011;12035;49.978;8.298;2022-11-20T09:36:18;24.88;;;12.98;;
23712;SDS011;12035;49.978;8.298;2022-11-20T09:46:45;25.23;;;12.88;;
23712;SDS011;12035;49.978;8.298;2022-11-20T09:51:51;21.83;;;11.40;;
23712;SDS011;12035;49.978;8.298;2022-11-20T09:56:55;20.85;;;11.70;;
23712;SDS011;12035;49.978;8.298;2022-11-20T10:01:57;22.95;;;12.75;;
23712;SDS011;12035;49.978;8.298;2022-11-20T10:07:00;19.38;;;12.40;;
23712;SDS011;12035;49.978;8.298;2022-11-20T10:12:05;21.95;;;12.20;;
23712;SDS011;12035;49.978;8.298;2022-11-20T10:17:15;21.83;;;11.90;;
23712;SDS011;12035;49.978;8.298;2022-11-20T10:22:22;26.45;;;12.65;;
23712;SDS011;12035;49.978;8.298;2022-11-20T10:27:48;19.08;;;10.35;;
23712;SDS011;12035;49.978;8.298;2022-11-20T10:33:17;19.45;;;10.80;;
23712;SDS011;12035;49.978;8.298;2022-11-20T10:38:19;23.45;;;12.05;;
23712;SDS011;12035;49.978;8.298;2022-11-20T10:43:21;19.83;;;11.77;;
23712;SDS011;12035;49.978;8.298;2022-11-20T10:48:26;22.65;;;12.68;;
23712;SDS011;12035;49.978;8.298;2022-11-20T10:53:31;19.95;;;12.23;;
23712;SDS011;12035;49.978;8.298;2022-11-20T10:58:44;20.70;;;12.10;;
23712;SDS011;12035;49.978;8.298;2022-11-20T11:03:51;19.98;;;11.48;;
23712;SDS011;12035;49.978;8.298;2022-11-20T11:08:50;18.92;;;11.02;;
23712;SDS011;12035;49.978;8.298;2022-11-20T11:13:50;19.83;;;11.07;;
23712;SDS011;12035;49.978;8.298;2022-11-20T11:18:47;18.75;;;11.25;;
23712;SDS011;12035;49.978;8.298;2022-11-20T11:30:11;18.38;;;10.60;;
23712;SDS011;12035;49.978;8.298;2022-11-20T11:40:24;17.60;;;9.88;;
23712;SDS011;12035;49.978;8.298;2022-11-20T11:45:26;23.65;;;12.60;;
23712;SDS011;12035;49.978;8.298;2022-11-20T11:50:24;19.67;;;10.88;;
23712;SDS011;12035;49.978;8.298;2022-11-20T11:55:25;18.67;;;10.90;;
23712;SDS011;12035;49.978;8.298;2022-11-20T12:00:29;20.13;;;10.98;;
23712;SDS011;12035;49.978;8.298;2022-11-20T12:05:28;18.20;;;10.73;;
23712;SDS011;12035;49.978;8.298;2022-11-20T12:10:36;15.05;;;8.60;;
23712;SDS011;12035;49.978;8.298;2022-11-20T12:15:46;20.67;;;13.05;;
23712;SDS011;12035;49.978;8.298;2022-11-20T12:20:45;18.80;;;12.23;;
23712;SDS011;12035;49.978;8.298;2022-11-20T12:26:02;18.45;;;11.50;;
23712;SDS011;12035;49.978;8.298;2022-11-20T12:31:55;19.15;;;11.38;;
23712;SDS011;12035;49.978;8.298;2022-11-20T12:37:27;17.83;;;10.95;;
23712;SDS011;12035;49.978;8.298;2022-11-20T12:42:43;18.67;;;11.55;;
23712;SDS011;12035;49.978;8.298;2022-11-20T12:48:20;17.70;;;10.48;;
23712;SDS011;12035;49.978;8.298;2022-11-20T12:53:45;17.55;;;10.02;;
23712;SDS011;12035;49.978;8.298;2022-11-20T12:58:58;18.60;;;11.00;;
23712;SDS011;12035;49.978;8.298;2022-11-20T13:04:18;19.35;;;10.35;;
23712;SDS011;12035;49.978;8.298;2022-11-20T13:09:36;17.00;;;11.35;;
23712;SDS011;12035;49.978;8.298;2022-11-20T13:14:40;16.60;;;10.10;;
23712;SDS011;12035;49.978;8.298;2022-11-20T13:19:44;16.10;;;9.65;;
23712;SDS011;12035;49.978;8.298;2022-11-20T13:24:50;15.57;;;10.35;;
23712;SDS011;12035;49.978;8.298;2022-11-20T13:29:58;19.52;;;10.27;;
23712;SDS011;12035;49.978;8.298;2022-11-20T13:35:08;16.08;;;10.68;;
23712;SDS011;12035;49.978;8.298;2022-11-20T13:40:12;15.40;;;9.30;;
23712;SDS011;12035;49.978;8.298;2022-11-20T13:45:22;18.27;;;9.55;;
23712;SDS011;12035;49.978;8.298;2022-11-20T13:50:37;14.75;;;9.32;;
23712;SDS011;12035;49.978;8.298;2022-11-20T13:55:42;14.45;;;9.60;;
23712;SDS011;12035;49.978;8.298;2022-11-20T14:00:51;16.20;;;10.05;;
23712;SDS011;12035;49.978;8.298;2022-11-20T14:05:56;14.25;;;8.50;;
23712;SDS011;12035;49.978;8.298;2022-11-20T14:11:11;16.83;;;10.85;;
23712;SDS011;12035;49.978;8.298;2022-11-20T14:16:12;17.77;;;10.60;;
23712;SDS011;12035;49.978;8.298;2022-11-20T14:21:22;14.18;;;9.13;;
23712;SDS011;12035;49.978;8.298;2022-11-20T14:26:21;14.63;;;9.35;;
23712;SDS011;12035;49.978;8.298;2022-11-20T14:31:21;15.55;;;9.88;;
23712;SDS011;12035;49.978;8.298;2022-11-20T14:36:23;13.70;;;9.07;;
23712;SDS011;12035;49.978;8.298;2022-11-20T14:41:22;14.82;;;9.32;;
23712;SDS011;12035;49.978;8.298;2022-11-20T14:46:20;16.27;;;9.55;;
23712;SDS011;12035;49.978;8.298;2022-11-20T14:51:29;14.95;;;9.40;;
23712;SDS011;12035;49.978;8.298;2022-11-20T14:56:29;18.30;;;10.98;;
23712;SDS011;12035;49.978;8.298;2022-11-20T15:01:27;20.08;;;10.68;;
23712;SDS011;12035;49.978;8.298;2022-11-20T15:06:26;19.30;;;11.25;;
23712;SDS011;12035;49.978;8.298;2022-11-20T15:11:28;20.02;;;10.90;;
23712;SDS011;12035;49.978;8.298;2022-11-20T15:16:28;17.23;;;10.57;;
23712;SDS011;12035;49.978;8.298;2022-11-20T15:21:25;16.48;;;9.13;;
23712;SDS011;12035;49.978;8.298;2022-11-20T15:26:24;16.02;;;10.63;;
23712;SDS011;12035;49.978;8.298;2022-11-20T15:31:23;17.63;;;10.48;;
23712;SDS011;12035;49.978;8.298;2022-11-20T15:36:20;18.52;;;10.95;;
23712;SDS011;12035;49.978;8.298;2022-11-20T15:41:17;41.22;;;21.67;;
23712;SDS011;12035;49.978;8.298;2022-11-20T15:46:16;21.42;;;12.82;;
23712;SDS011;12035;49.978;8.298;2022-11-20T15:51:21;21.85;;;12.15;;
23712;SDS011;12035;49.978;8.298;2022-11-20T15:56:23;18.55;;;10.73;;
23712;SDS011;12035;49.978;8.298;2022-11-20T16:01:22;22.48;;;13.35;;
23712;SDS011;12035;49.978;8.298;2022-11-20T16:06:19;19.95;;;12.07;;
23712;SDS011;12035;49.978;8.298;2022-11-20T16:11:17;21.52;;;11.93;;
23712;SDS011;12035;49.978;8.298;2022-11-20T16:16:18;21.45;;;12.18;;
23712;SDS011;12035;49.978;8.298;2022-11-20T16:21:18;19.55;;;10.75;;
23712;SDS011;12035;49.978;8.298;2022-11-20T16:26:16;17.77;;;9.95;;
23712;SDS011;12035;49.978;8.298;2022-11-20T16:31:14;17.15;;;10.88;;
23712;SDS011;12035;49.978;8.298;2022-11-20T16:36:14;18.63;;;10.50;;
23712;SDS011;12035;49.978;8.298;2022-11-20T16:41:13;19.50;;;11.43;;
23712;SDS011;12035;49.978;8.298;2022-11-20T16:46:10;19.45;;;12.07;;
23712;SDS011;12035;49.978;8.298;2022-11-20T16:51:08;20.52;;;12.38;;
23712;SDS011;12035;49.978;8.298;2022-11-20T16:56:08;20.27;;;11.65;;
23712;SDS011;12035;49.978;8.298;2022-11-20T17:01:09;31.95;;;18.42;;
23712;SDS011;12035;49.978;8.298;2022-11-20T17:06:12;30.35;;;15.95;;
23712;SDS011;12035;49.978;8.298;2022-11-20T17:11:10;18.85;;;10.57;;
23712;SDS011;12035;49.978;8.298;2022-11-20T17:16:11;16.42;;;10.00;;
23712;SDS011;12035;49.978;8.298;2022-11-20T17:21:10;19.42;;;11.02;;
23712;SDS011;12035;49.978;8.298;2022-11-20T17:26:08;19.50;;;10.77;;
23712;SDS011;12035;49.978;8.298;2022-11-20T17:31:09;19.15;;;11.18;;
23712;SDS011;12035;49.978;8.298;2022-11-20T17:36:11;19.10;;;11.35;;
23712;SDS011;12035;49.978;8.298;2022-11-20T17:41:14;20.85;;;11.68;;
23712;SDS011;12035;49.978;8.298;2022-11-20T17:46:16;22.40;;;12.23;;
23712;SDS011;12035;49.978;8.298;2022-11-20T17:51:16;18.35;;;10.77;;
23712;SDS011;12035;49.978;8.298;2022-11-20T17:56:16;18.38;;;10.15;;
23712;SDS011;12035;49.978;8.298;2022-11-20T18:01:32;18.92;;;11.38;;
23712;SDS011;12035;49.978;8.298;2022-11-20T18:06:30;20.35;;;11.30;;
23712;SDS011;12035;49.978;8.298;2022-11-20T18:11:28;12.20;;;7.15;;
23712;SDS011;12035;49.978;8.298;2022-11-20T18:16:27;7.68;;;2.30;;
23712;SDS011;12035;49.978;8.298;2022-11-20T18:21:29;4.28;;;1.33;;
23712;SDS011;12035;49.978;8.298;2022-11-20T18:26:26;3.25;;;1.30;;
23712;SDS011;12035;49.978;8.298;2022-11-20T18:31:24;2.40;;;1.08;;
23712;SDS011;12035;49.978;8.298;2022-11-20T18:36:22;2.00;;;1.10;;
23712;SDS011;12035;49.978;8.298;2022-11-20T18:41:24;2.45;;;0.90;;
23712;SDS011;12035;49.978;8.298;2022-11-20T18:46:40;3.35;;;0.98;;
23712;SDS011;12035;49.978;8.298;2022-11-20T18:51:38;3.88;;;1.00;;
23712;SDS011;12035;49.978;8.298;2022-11-20T18:56:39;2.97;;;1.10;;
23712;SDS011;12035;49.978;8.298;2022-11-20T19:01:36;2.13;;;0.90;;
23712;SDS011;12035;49.978;8.298;2022-11-20T19:06:36;3.15;;;1.10;;
23712;SDS011;12035;49.978;8.298;2022-11-20T19:11:45;2.97;;;0.82;;
23712;SDS011;12035;49.978;8.298;2022-11-20T19:16:43;2.65;;;1.02;;
23712;SDS011;12035;49.978;8.298;2022-11-20T19:21:40;2.03;;;0.90;;
23712;SDS011;12035;49.978;8.298;2022-11-20T19:26:37;2.35;;;0.88;;
23712;SDS011;12035;49.978;8.298;2022-11-20T19:31:36;2.35;;;0.93;;
23712;SDS011;12035;49.978;8.298;2022-11-20T19:36:33;2.30;;;0.80;;
23712;SDS011;12035;49.978;8.298;2022-11-20T19:41:32;1.27;;;0.68;;
23712;SDS011;12035;49.978;8.298;2022-11-20T19:46:31;1.60;;;0.75;;
23712;SDS011;12035;49.978;8.298;2022-11-20T19:51:32;3.15;;;1.20;;
23712;SDS011;12035;49.978;8.298;2022-11-20T19:56:33;1.75;;;0.60;;
23712;SDS011;12035;49.978;8.298;2022-11-20T20:01:30;1.10;;;0.70;;
23712;SDS011;12035;49.978;8.298;2022-11-20T20:06:29;0.98;;;0.70;;
23712;SDS011;12035;49.978;8.298;2022-11-20T20:11:30;3.55;;;1.50;;
23712;SDS011;12035;49.978;8.298;2022-11-20T20:16:28;3.80;;;1.80;;
23712;SDS011;12035;49.978;8.298;2022-11-20T20:21:27;1.50;;;0.63;;
23712;SDS011;12035;49.978;8.298;2022-11-20T20:26:27;1.33;;;0.70;;
23712;SDS011;12035;49.978;8.298;2022-11-20T20:31:27;7.35;;;4.35;;
23712;SDS011;12035;49.978;8.298;2022-11-20T20:36:27;3.03;;;1.10;;
23712;SDS011;12035;49.978;8.298;2022-11-20T20:41:24;1.10;;;0.68;;
23712;SDS011;12035;49.978;8.298;2022-11-20T20:46:23;1.65;;;0.60;;
23712;SDS011;12035;49.978;8.298;2022-11-20T20:51:20;1.05;;;0.60;;
23712;SDS011;12035;49.978;8.298;2022-11-20T20:56:18;1.48;;;0.77;;
23712;SDS011;12035;49.978;8.298;2022-11-20T21:01:17;2.15;;;0.80;;
23712;SDS011;12035;49.978;8.298;2022-11-20T21:06:16;2.25;;;0.70;;
23712;SDS011;12035;49.978;8.298;2022-11-20T21:11:14;1.50;;;0.60;;
23712;SDS011;12035;49.978;8.298;2022-11-20T21:16:15;1.52;;;0.70;;
23712;SDS011;12035;49.978;8.298;2022-11-20T21:21:16;2.50;;;0.90;;
23712;SDS011;12035;49.978;8.298;2022-11-20T21:26:31;3.22;;;0.80;;
23712;SDS011;12035;49.978;8.298;2022-11-20T21:31:30;2.45;;;1.00;;
23712;SDS011;12035;49.978;8.298;2022-11-20T21:36:28;1.83;;;0.93;;
23712;SDS011;12035;49.978;8.298;2022-11-20T21:41:26;1.98;;;1.05;;
23712;SDS011;12035;49.978;8.298;2022-11-20T21:46:25;5.13;;;0.90;;
23712;SDS011;12035;49.978;8.298;2022-11-20T21:51:24;3.97;;;1.00;;
23712;SDS011;12035;49.978;8.298;2022-11-20T21:56:24;3.67;;;1.02;;
23712;SDS011;12035;49.978;8.298;2022-11-20T22:01:23;3.50;;;0.98;;
23712;SDS011;12035;49.978;8.298;2022-11-20T22:06:24;5.43;;;0.90;;
23712;SDS011;12035;49.978;8.298;2022-11-20T22:11:23;5.65;;;1.30;;
23712;SDS011;12035;49.978;8.298;2022-11-20T22:16:20;4.05;;;1.70;;
23712;SDS011;12035;49.978;8.298;2022-11-20T22:21:18;4.15;;;1.50;;
23712;SDS011;12035;49.978;8.298;2022-11-20T22:26:19;4.32;;;1.75;;
23712;SDS011;12035;49.978;8.298;2022-11-20T22:31:17;5.45;;;1.25;;
23712;SDS011;12035;49.978;8.298;2022-11-20T22:36:17;6.53;;;1.50;;
23712;SDS011;12035;49.978;8.298;2022-11-20T22:41:16;5.53;;;1.70;;
23712;SDS011;12035;49.978;8.298;2022-11-20T22:46:17;5.03;;;1.35;;
23712;SDS011;12035;49.978;8.298;2022-11-20T22:51:15;5.00;;;1.38;;
23712;SDS011;12035;49.978;8.298;2022-11-20T22:56:14;4.57;;;1.50;;
23712;SDS011;12035;49.978;8.298;2022-11-20T23:01:14;5.80;;;2.03;;
23712;SDS011;12035;49.978;8.298;2022-11-20T23:06:17;6.05;;;1.90;;
23712;SDS011;12035;49.978;8.298;2022-11-20T23:11:16;4.55;;;1.40;;
23712;SDS011;12035;49.978;8.298;2022-11-20T23:16:17;7.10;;;1.45;;
23712;SDS011;12035;49.978;8.298;2022-11-20T23:21:15;4.18;;;1.10;;
23712;SDS011;12035;49.978;8.298;2022-11-20T23:26:14;3.30;;;0.80;;
23712;SDS011;12035;49.978;8.298;2022-11-20T23:31:12;1.08;;;0.43;;
23712;SDS011;12035;49.978;8.298;2022-11-20T23:36:12;4.60;;;0.68;;
23712;SDS011;12035;49.978;8.298;2022-11-20T23:41:10;2.20;;;0.50;;
23712;SDS011;12035;49.978;8.298;2022-11-20T23:46:08;2.65;;;0.70;;
23712;SDS011;12035;49.978;8.298;2022-11-20T23:51:06;2.75;;;1.20;;
23712;SDS011;12035;49.978;8.298;2022-11-20T23:56:04;3.17;;;1.40;;
